sensor_id;sensor_type;location;lat;lon;timestamp;temperature;humidity
66088;DHT22;52872;52.994;6.940;2024-01-30T16:03:31;9.90;99.90
66088;DHT22;52872;52.994;6.940;2024-01-30T16:06:53;10.60;99.90
66088;DHT22;52872;52.994;6.940;2024-01-30T16:09:23;9.20;99.90
66088;DHT22;52872;52.994;6.940;2024-01-30T16:11:50;9.10;99.90
66088;DHT22;52872;52.994;6.940;2024-01-30T16:16:40;9.20;99.90
66088;DHT22;52872;52.994;6.940;2024-01-30T16:22:59;9.20;99.90
66088;DHT22;52872;52.994;6.940;2024-01-30T16:28:54;8.90;99.90
66088;DHT22;52872;52.994;6.940;2024-01-30T16:34:49;8.70;99.90
66088;DHT22;52872;52.994;6.940;2024-01-30T16:41:08;8.60;99.90
66088;DHT22;52872;52.994;6.940;2024-01-30T16:47:27;8.70;99.90
66088;DHT22;52872;52.994;6.940;2024-01-30T16:53:23;8.60;99.90
66088;DHT22;52872;52.994;6.940;2024-01-30T16:59:18;8.50;99.90
66088;DHT22;52872;52.994;6.940;2024-01-30T17:05:37;8.50;99.90
66088;DHT22;52872;52.994;6.940;2024-01-30T17:11:56;8.60;99.90
66088;DHT22;52872;52.994;6.940;2024-01-30T17:17:50;8.60;99.90
66088;DHT22;52872;52.994;6.940;2024-01-30T17:23:48;8.50;99.90
66088;DHT22;52872;52.994;6.940;2024-01-30T17:30:07;8.50;99.90
66088;DHT22;52872;52.994;6.940;2024-01-30T17:36:26;8.60;99.90
66088;DHT22;52872;52.994;6.940;2024-01-30T17:42:21;8.40;99.90
66088;DHT22;52872;52.994;6.940;2024-01-30T17:48:18;8.20;99.90
66088;DHT22;52872;52.994;6.940;2024-01-30T17:54:37;8.30;99.90
66088;DHT22;52872;52.994;6.940;2024-01-30T18:00:56;8.30;99.90
66088;DHT22;52872;52.994;6.940;2024-01-30T18:06:53;8.30;99.90
66088;DHT22;52872;52.994;6.940;2024-01-30T18:12:49;8.20;99.90
66088;DHT22;52872;52.994;6.940;2024-01-30T18:19:10;8.20;99.90
66088;DHT22;52872;52.994;6.940;2024-01-30T18:25:29;8.30;99.90
66088;DHT22;52872;52.994;6.940;2024-01-30T18:31:24;8.20;99.90
66088;DHT22;52872;52.994;6.940;2024-01-30T18:37:19;8.10;99.90
66088;DHT22;52872;52.994;6.940;2024-01-30T18:43:38;8.10;99.90
66088;DHT22;52872;52.994;6.940;2024-01-30T18:49:57;8.20;99.90
66088;DHT22;52872;52.994;6.940;2024-01-30T18:55:52;8.00;99.90
66088;DHT22;52872;52.994;6.940;2024-01-30T19:01:46;7.80;99.90
66088;DHT22;52872;52.994;6.940;2024-01-30T19:08:06;7.90;99.90
66088;DHT22;52872;52.994;6.940;2024-01-30T19:14:24;8.00;99.90
66088;DHT22;52872;52.994;6.940;2024-01-30T19:20:19;7.80;99.90
66088;DHT22;52872;52.994;6.940;2024-01-30T19:26:17;7.70;99.90
66088;DHT22;52872;52.994;6.940;2024-01-30T19:32:36;7.70;99.90
66088;DHT22;52872;52.994;6.940;2024-01-30T19:38:54;7.70;99.90
66088;DHT22;52872;52.994;6.940;2024-01-30T19:44:49;7.70;99.90
66088;DHT22;52872;52.994;6.940;2024-01-30T19:50:44;7.50;99.90
66088;DHT22;52872;52.994;6.940;2024-01-30T19:57:03;7.60;99.90
66088;DHT22;52872;52.994;6.940;2024-01-30T20:03:22;7.70;99.90
66088;DHT22;52872;52.994;6.940;2024-01-30T20:09:17;7.60;99.90
66088;DHT22;52872;52.994;6.940;2024-01-30T20:15:13;7.40;99.90
66088;DHT22;52872;52.994;6.940;2024-01-30T20:21:34;7.50;99.90
66088;DHT22;52872;52.994;6.940;2024-01-30T20:27:53;7.50;99.90
66088;DHT22;52872;52.994;6.940;2024-01-30T20:33:50;7.40;99.90
66088;DHT22;52872;52.994;6.940;2024-01-30T20:39:45;7.40;99.90
66088;DHT22;52872;52.994;6.940;2024-01-30T20:46:04;7.40;99.90
66088;DHT22;52872;52.994;6.940;2024-01-30T20:52:24;7.40;99.90
66088;DHT22;52872;52.994;6.940;2024-01-30T20:58:19;7.30;99.90
66088;DHT22;52872;52.994;6.940;2024-01-30T21:04:14;7.10;99.90
66088;DHT22;52872;52.994;6.940;2024-01-30T21:10:33;7.10;99.90
66088;DHT22;52872;52.994;6.940;2024-01-30T21:16:53;7.20;99.90
66088;DHT22;52872;52.994;6.940;2024-01-30T21:22:48;7.10;99.90
66088;DHT22;52872;52.994;6.940;2024-01-30T21:28:43;6.90;99.90
66088;DHT22;52872;52.994;6.940;2024-01-30T21:35:02;7.00;99.90
66088;DHT22;52872;52.994;6.940;2024-01-30T21:41:21;7.00;99.90
66088;DHT22;52872;52.994;6.940;2024-01-30T21:47:16;6.80;99.90
66088;DHT22;52872;52.994;6.940;2024-01-30T21:53:11;6.60;99.90
66088;DHT22;52872;52.994;6.940;2024-01-30T21:59:30;6.70;99.90
66088;DHT22;52872;52.994;6.940;2024-01-30T22:05:50;6.80;99.90
66088;DHT22;52872;52.994;6.940;2024-01-30T22:11:44;6.60;99.90
66088;DHT22;52872;52.994;6.940;2024-01-30T22:17:39;6.30;99.90
66088;DHT22;52872;52.994;6.940;2024-01-30T22:23:58;6.30;99.90
66088;DHT22;52872;52.994;6.940;2024-01-30T22:30:17;6.30;99.90
66088;DHT22;52872;52.994;6.940;2024-01-30T22:36:11;6.20;99.90
66088;DHT22;52872;52.994;6.940;2024-01-30T22:42:06;6.20;99.90
66088;DHT22;52872;52.994;6.940;2024-01-30T22:48:25;6.30;99.90
66088;DHT22;52872;52.994;6.940;2024-01-30T22:54:45;6.40;99.90
66088;DHT22;52872;52.994;6.940;2024-01-30T23:00:40;6.30;99.90
66088;DHT22;52872;52.994;6.940;2024-01-30T23:06:36;6.20;99.90
66088;DHT22;52872;52.994;6.940;2024-01-30T23:12:55;6.20;99.90
66088;DHT22;52872;52.994;6.940;2024-01-30T23:19:14;6.40;99.90
66088;DHT22;52872;52.994;6.940;2024-01-30T23:25:11;6.20;99.90
66088;DHT22;52872;52.994;6.940;2024-01-30T23:31:05;6.20;99.90
66088;DHT22;52872;52.994;6.940;2024-01-30T23:37:24;6.20;99.90
66088;DHT22;52872;52.994;6.940;2024-01-30T23:43:43;6.40;99.90
66088;DHT22;52872;52.994;6.940;2024-01-30T23:49:38;6.20;99.90
66088;DHT22;52872;52.994;6.940;2024-01-30T23:55:33;6.10;99.90
